Ahwahnee, California
Current Conditions -  °F | °C
As of 9:53 AM on Thursday 29 Jan 2015 (Local Time) from KMAE Reporting Station
Moderate Fog Moderate Fog  
Wind Chill:   Ceiling: 200
Heat Index:   Visibility: 0mi
Dew Point:   Wind: 3mph
Humidity: 93%   Direction: 130°SE
Pressure: 30.18"   Gusts: NA
Location:  37.37°N, 119.73°W
Report Text: KMAE 291753Z AUTO 13003KT M1/4SM FG VV002 09/08 A3018 RMK AO2 SLP220 T00940083 10094 20067 51010
Loading
Personal Weather Stations






























Interactive Weather Map New forecast layout! Learn more

10-Day Weather Forecast

Advertisements
Track Severe Weather on mobile